Time;durP1;ratioP1;P1;durP2;ratioP2;P2;SDS_P1;SDS_P2;PMS_P1;PMS_P2;Temp;Humidity;BMP_temperature;BMP_pressure;BME280_temperature;BME280_humidity;BME280_pressure;Samples;Min_cycle;Max_cycle;Signal;HPM_P1;HPM_P2
2023/10/05 00:01:34;;;;;;;7.65;3.17;;;435.80;2355.20;;;;;;5069071;28;20036;-78
2023/10/05 00:04:01;;;;;;;11.00;2.90;;;435.80;2355.20;;;;;;5061497;28;20037;-77
2023/10/05 00:06:27;;;;;;;10.95;3.40;;;435.80;2355.20;;;;;;5071676;28;20032;-77
2023/10/05 00:08:55;;;;;;;9.57;2.75;;;435.80;2355.20;;;;;;5072909;28;20039;-76
2023/10/05 00:11:31;;;;;;;9.63;2.83;;;435.90;2355.20;;;;;;5072303;28;20048;-77
2023/10/05 00:13:59;;;;;;;9.35;2.70;;;435.70;2355.20;;;;;;5073574;28;20020;-77
2023/10/05 00:16:37;;;;;;;10.88;2.95;;;435.40;2355.20;;;;;;5071724;28;20028;-77
2023/10/05 00:19:11;;;;;;;5.90;2.67;;;435.30;2355.20;;;;;;5055603;28;20111;-77
2023/10/05 00:21:41;;;;;;;6.45;2.67;;;435.30;2355.20;;;;;;5055370;28;20366;-77
2023/10/05 00:24:07;;;;;;;9.52;3.50;;;410.50;2355.20;;;;;;5055420;28;20021;-78
2023/10/05 00:26:36;;;;;;;8.40;2.45;;;410.40;2355.20;;;;;;5073249;28;20040;-78
2023/10/05 00:31:41;;;;;;;8.85;4.55;;;410.20;2355.20;;;;;;5067461;28;20096;-78
2023/10/05 00:34:24;;;;;;;7.80;2.88;;;410.00;2355.20;;;;;;5048868;28;20355;-78
2023/10/05 00:36:51;;;;;;;7.95;3.40;;;410.00;2355.20;;;;;;5053493;28;20045;-79
2023/10/05 00:39:21;;;;;;;9.88;2.67;;;410.10;2355.20;;;;;;5055653;28;20095;-77
2023/10/05 00:44:36;;;;;;;6.80;2.80;;;409.90;2355.20;;;;;;5053482;28;20108;-77
2023/10/05 00:47:06;;;;;;;8.98;2.70;;;410.20;2355.20;;;;;;5066149;28;20035;-78
2023/10/05 00:49:51;;;;;;;7.03;2.78;;;410.10;2355.20;;;;;;5066258;28;20031;-78
2023/10/05 00:52:24;;;;;;;6.57;2.70;;;410.20;2355.20;;;;;;5066534;28;20025;-79
2023/10/05 00:54:53;;;;;;;7.07;3.30;;;410.30;2355.20;;;;;;5063514;28;20107;-77
2023/10/05 00:57:22;;;;;;;8.52;3.13;;;410.30;2355.20;;;;;;5054652;28;20487;-78
2023/10/05 01:02:31;;;;;;;6.80;3.10;;;410.30;2355.20;;;;;;5052942;28;20536;-77
2023/10/05 01:05:24;;;;;;;9.88;2.88;;;410.30;2355.20;;;;;;5053295;28;20027;-78
2023/10/05 01:07:55;;;;;;;10.82;2.90;;;410.40;2355.20;;;;;;5061658;28;20508;-78
2023/10/05 01:12:50;;;;;;;9.45;3.28;;;410.50;2355.20;;;;;;5063434;28;20370;-78
2023/10/05 01:15:21;;;;;;;6.03;2.67;;;410.30;2355.20;;;;;;5069295;28;20025;-78
2023/10/05 01:17:52;;;;;;;10.52;2.88;;;410.30;2355.20;;;;;;5064166;28;20048;-79
2023/10/05 01:22:47;;;;;;;6.28;3.17;;;410.30;2355.20;;;;;;5053274;28;20028;-78
2023/10/05 01:25:14;;;;;;;9.43;2.72;;;410.30;2355.20;;;;;;5065918;28;20086;-79
2023/10/05 01:27:42;;;;;;;8.35;3.03;;;410.20;2355.20;;;;;;5052661;28;20083;-77
2023/10/05 01:30:09;;;;;;;8.45;3.08;;;410.00;2355.20;;;;;;5044431;28;20032;-77
2023/10/05 01:32:35;;;;;;;7.70;2.80;;;410.00;2355.20;;;;;;5063736;28;20078;-78
2023/10/05 01:35:09;;;;;;;10.63;4.10;;;409.90;2355.20;;;;;;5058304;28;20151;-77
2023/10/05 01:37:36;;;;;;;9.48;2.75;;;409.80;2355.20;;;;;;5076190;28;20123;-77
2023/10/05 01:40:20;;;;;;;12.48;3.97;;;409.90;2355.20;;;;;;5075950;28;20020;-79
2023/10/05 01:42:51;;;;;;;9.10;3.38;;;409.90;2355.20;;;;;;5076276;28;20039;-79
2023/10/05 01:45:23;;;;;;;11.68;2.65;;;410.30;2355.20;;;;;;5058205;28;20099;-77
2023/10/05 01:47:49;;;;;;;7.07;3.08;;;410.00;2355.20;;;;;;5076353;28;20071;-79
2023/10/05 01:50:18;;;;;;;7.47;2.60;;;409.90;2355.20;;;;;;5045885;28;20485;-79
2023/10/05 01:53:02;;;;;;;6.72;2.75;;;409.90;2355.20;;;;;;5038359;28;20021;-78
2023/10/05 01:55:30;;;;;;;6.10;2.70;;;409.90;2355.20;;;;;;5056020;28;20386;-78
2023/10/05 01:57:58;;;;;;;7.45;2.88;;;409.80;2355.20;;;;;;5064743;28;20051;-79
2023/10/05 02:00:24;;;;;;;5.68;2.50;;;409.70;2355.20;;;;;;5058078;28;20110;-78
2023/10/05 02:02:52;;;;;;;6.85;3.08;;;409.60;2355.20;;;;;;5067356;28;20108;-78
2023/10/05 02:05:21;;;;;;;9.30;3.15;;;409.60;2355.20;;;;;;5056118;28;20474;-79
2023/10/05 02:07:49;;;;;;;7.60;2.35;;;384.80;2329.60;;;;;;5037936;28;20083;-78
2023/10/05 02:10:19;;;;;;;8.15;2.63;;;384.70;2329.60;;;;;;5072253;28;20031;-78
2023/10/05 02:12:48;;;;;;;7.53;2.92;;;384.60;2329.60;;;;;;5075780;28;20107;-78
2023/10/05 02:15:16;;;;;;;10.65;3.75;;;384.50;2329.60;;;;;;5058674;28;20048;-79
2023/10/05 02:17:51;;;;;;;12.77;3.97;;;384.50;2329.60;;;;;;5055970;28;20497;-78
2023/10/05 02:23:04;;;;;;;8.40;3.20;;;384.40;2329.60;;;;;;5070036;28;20094;-77
2023/10/05 02:25:33;;;;;;;9.80;3.30;;;384.50;2329.60;;;;;;5057417;28;20037;-78
2023/10/05 02:28:00;;;;;;;7.47;3.78;;;384.50;2329.60;;;;;;5060191;28;20478;-78
2023/10/05 02:30:31;;;;;;;6.25;2.97;;;384.40;2329.60;;;;;;5037668;28;20029;-78
2023/10/05 02:33:03;;;;;;;9.15;4.03;;;384.40;2329.60;;;;;;5057833;28;20053;-77
2023/10/05 02:35:30;;;;;;;9.38;2.72;;;384.40;2329.60;;;;;;5065346;28;20024;-78
2023/10/05 02:37:58;;;;;;;9.98;3.75;;;384.30;2329.60;;;;;;5037294;28;20065;-76
2023/10/05 02:40:34;;;;;;;8.25;3.38;;;384.30;2329.60;;;;;;5065716;28;20043;-77
2023/10/05 02:43:07;;;;;;;8.68;3.15;;;384.40;2329.60;;;;;;5057365;28;20027;-79
2023/10/05 02:45:36;;;;;;;7.10;3.03;;;384.30;2329.60;;;;;;5062052;28;20071;-79
2023/10/05 02:48:05;;;;;;;9.00;2.90;;;384.30;2329.60;;;;;;5037120;28;20032;-79
2023/10/05 02:50:31;;;;;;;7.93;2.45;;;384.40;2329.60;;;;;;5055142;28;20029;-77
2023/10/05 02:52:59;;;;;;;10.27;2.65;;;384.30;2329.60;;;;;;5055650;28;20021;-79
2023/10/05 02:55:26;;;;;;;11.18;3.03;;;384.30;2329.60;;;;;;5068175;28;20025;-78
2023/10/05 02:57:52;;;;;;;8.75;2.58;;;384.40;2329.60;;;;;;5054659;28;20041;-78
2023/10/05 03:00:20;;;;;;;9.27;2.92;;;384.30;2329.60;;;;;;5055050;28;20033;-78
2023/10/05 03:02:49;;;;;;;9.10;3.08;;;384.30;2329.60;;;;;;5063691;28;20013;-78
2023/10/05 03:05:15;;;;;;;9.48;3.38;;;384.40;2329.60;;;;;;5072529;28;20017;-79
2023/10/05 03:07:43;;;;;;;12.43;3.65;;;384.40;2329.60;;;;;;5064027;28;20029;-77
2023/10/05 03:10:15;;;;;;;7.32;2.42;;;384.50;2329.60;;;;;;5058757;28;20036;-78
2023/10/05 03:12:41;;;;;;;12.10;3.60;;;384.50;2329.60;;;;;;5064895;28;20021;-79
2023/10/05 03:15:08;;;;;;;11.85;3.83;;;384.50;2329.60;;;;;;5061116;28;20027;-78
2023/10/05 03:17:36;;;;;;;11.57;3.17;;;384.50;2329.60;;;;;;5036887;28;20036;-78
2023/10/05 03:20:08;;;;;;;8.23;3.22;;;384.60;2329.60;;;;;;5057249;28;20020;-78
2023/10/05 03:22:34;;;;;;;8.38;3.13;;;384.70;2329.60;;;;;;5056217;28;20043;-78
2023/10/05 03:25:00;;;;;;;9.18;3.30;;;384.70;2329.60;;;;;;5073593;28;20027;-78
2023/10/05 03:27:26;;;;;;;8.68;3.53;;;384.70;2329.60;;;;;;5074161;28;20036;-77
2023/10/05 03:30:01;;;;;;;8.23;2.65;;;384.70;2329.60;;;;;;5074145;28;20052;-79
2023/10/05 03:32:28;;;;;;;6.80;4.30;;;384.70;2329.60;;;;;;5056243;28;20024;-79
2023/10/05 03:34:58;;;;;;;7.18;3.13;;;384.70;2329.60;;;;;;5037028;28;20014;-79
2023/10/05 03:37:24;;;;;;;8.88;4.30;;;384.70;2329.60;;;;;;5067433;28;20381;-78
2023/10/05 03:42:22;;;;;;;16.73;3.45;;;384.70;2329.60;;;;;;5055088;28;20047;-78
2023/10/05 03:45:11;;;;;;;8.20;3.63;;;384.70;2329.60;;;;;;5074213;28;20020;-79
2023/10/05 03:47:37;;;;;;;6.05;3.22;;;384.60;2329.60;;;;;;5060790;28;20482;-79
2023/10/05 03:50:07;;;;;;;7.85;3.00;;;384.60;2329.60;;;;;;5056084;28;20404;-79
2023/10/05 03:52:33;;;;;;;8.35;3.55;;;384.50;2329.60;;;;;;5073394;28;20059;-79
2023/10/05 03:55:09;;;;;;;9.48;3.75;;;384.50;2329.60;;;;;;5062098;28;20036;-79
2023/10/05 03:57:35;;;;;;;7.15;3.35;;;384.50;2329.60;;;;;;5072559;28;20044;-79
2023/10/05 04:00:18;;;;;;;9.93;3.05;;;384.40;2329.60;;;;;;5073985;28;20154;-78
2023/10/05 04:02:44;;;;;;;6.95;3.90;;;384.40;2329.60;;;;;;5065240;28;20367;-79
2023/10/05 04:05:11;;;;;;;5.95;3.03;;;384.40;2329.60;;;;;;5035402;28;20029;-79
2023/10/05 04:07:38;;;;;;;11.25;3.47;;;384.40;2329.60;;;;;;5061913;28;20032;-78
2023/10/05 04:10:06;;;;;;;12.75;3.80;;;384.40;2329.60;;;;;;5058491;28;20020;-79
2023/10/05 04:12:32;;;;;;;14.70;4.40;;;384.30;2329.60;;;;;;5062113;28;20028;-76
2023/10/05 04:15:05;;;;;;;6.25;3.40;;;384.40;2329.60;;;;;;5071363;28;20129;-78
2023/10/05 04:17:31;;;;;;;9.02;2.72;;;384.50;2329.60;;;;;;5053295;28;20489;-78
2023/10/05 04:19:57;;;;;;;15.52;3.38;;;384.40;2329.60;;;;;;5069920;28;20048;-77
2023/10/05 04:22:24;;;;;;;11.52;3.58;;;384.20;2329.60;;;;;;5073567;28;20462;-78
2023/10/05 04:24:50;;;;;;;10.35;3.90;;;384.40;2329.60;;;;;;5068867;28;20027;-78
2023/10/05 04:27:18;;;;;;;8.93;3.47;;;384.30;2329.60;;;;;;5043124;28;20037;-76
2023/10/05 04:29:44;;;;;;;10.02;4.30;;;384.30;2329.60;;;;;;5049563;28;20018;-76
2023/10/05 04:32:15;;;;;;;7.68;3.35;;;384.40;2329.60;;;;;;5043523;28;20021;-76
2023/10/05 04:34:40;;;;;;;7.88;3.08;;;384.40;2329.60;;;;;;5035307;28;20036;-77
2023/10/05 04:37:06;;;;;;;5.70;3.28;;;384.50;2329.60;;;;;;5053313;28;20496;-76
2023/10/05 04:39:32;;;;;;;8.32;3.50;;;384.50;2329.60;;;;;;5052922;28;20494;-76
2023/10/05 04:42:11;;;;;;;9.45;3.70;;;384.50;2329.60;;;;;;5052999;28;20463;-78
2023/10/05 04:44:41;;;;;;;7.05;2.75;;;384.50;2329.60;;;;;;5046337;28;20368;-76
2023/10/05 04:47:09;;;;;;;8.32;3.90;;;384.40;2329.60;;;;;;5046267;28;20029;-77
2023/10/05 04:49:37;;;;;;;9.60;3.63;;;384.40;2329.60;;;;;;5032978;28;20021;-77
2023/10/05 04:52:06;;;;;;;10.50;3.45;;;384.40;2329.60;;;;;;5046316;28;20017;-76
2023/10/05 04:54:38;;;;;;;12.63;4.25;;;384.40;2329.60;;;;;;5040741;28;20017;-76
2023/10/05 04:57:07;;;;;;;9.73;3.30;;;384.20;2329.60;;;;;;5038969;28;20503;-77
2023/10/05 05:02:47;;;;;;;19.70;8.43;;;384.30;2329.60;;;;;;5048887;28;20110;-79
2023/10/05 05:05:40;;;;;;;8.73;4.10;;;384.30;2329.60;;;;;;5042475;28;20494;-78
2023/10/05 05:08:06;;;;;;;9.15;2.95;;;384.30;2329.60;;;;;;5037302;28;20426;-78
2023/10/05 05:10:31;;;;;;;7.60;3.50;;;384.20;2329.60;;;;;;5042563;28;20020;-78
2023/10/05 05:12:57;;;;;;;5.35;3.25;;;384.10;2329.60;;;;;;5044907;28;20052;-77
2023/10/05 05:15:23;;;;;;;7.90;3.17;;;384.00;2329.60;;;;;;5036583;28;20017;-77
2023/10/05 05:17:49;;;;;;;7.35;3.33;;;384.00;2329.60;;;;;;5048840;28;20021;-79
2023/10/05 05:20:15;;;;;;;5.43;3.20;;;384.30;2329.60;;;;;;5038024;28;20027;-78
2023/10/05 05:22:46;;;;;;;8.07;3.42;;;384.20;2329.60;;;;;;5036185;28;20021;-79
2023/10/05 05:25:12;;;;;;;8.80;3.33;;;384.20;2329.60;;;;;;5054473;28;20061;-78
2023/10/05 05:27:37;;;;;;;12.30;3.53;;;384.10;2329.60;;;;;;5043798;28;20080;-78
2023/10/05 05:30:11;;;;;;;9.77;3.70;;;384.10;2329.60;;;;;;5055794;28;20406;-79
2023/10/05 05:32:36;;;;;;;12.18;4.10;;;384.10;2329.60;;;;;;5054732;28;20025;-78
2023/10/05 05:35:03;;;;;;;9.02;3.85;;;384.20;2329.60;;;;;;5043015;28;20474;-78
2023/10/05 05:37:29;;;;;;;7.65;3.38;;;384.20;2329.60;;;;;;5042338;28;20028;-79
2023/10/05 05:39:55;;;;;;;8.77;3.88;;;384.10;2329.60;;;;;;5050042;28;20100;-78
2023/10/05 05:42:25;;;;;;;11.75;3.30;;;384.00;2329.60;;;;;;5046133;28;20053;-78
2023/10/05 05:44:52;;;;;;;11.70;3.80;;;384.00;2329.60;;;;;;5055831;28;20116;-78
2023/10/05 05:47:18;;;;;;;11.60;3.72;;;384.40;2329.60;;;;;;5053491;28;20406;-79
2023/10/05 06:15:31;;;;;;;12.07;4.15;;;384.10;2329.60;;;;;;5153519;27;20176;-78
2023/10/05 06:18:00;;;;;;;11.45;4.03;;;409.90;2355.20;;;;;;5123392;28;20059;-79
2023/10/05 06:20:25;;;;;;;9.63;3.55;;;409.90;2355.20;;;;;;5104134;28;20019;-78
2023/10/05 06:22:51;;;;;;;10.20;3.63;;;409.90;2355.20;;;;;;5129377;27;20032;-81
2023/10/05 06:25:20;;;;;;;13.10;3.97;;;410.00;2355.20;;;;;;5116858;27;20393;-78
2023/10/05 06:27:51;;;;;;;13.00;4.72;;;409.90;2355.20;;;;;;5116175;28;20023;-80
2023/10/05 06:30:17;;;;;;;9.18;3.90;;;410.00;2355.20;;;;;;5113046;27;20469;-78
2023/10/05 06:32:43;;;;;;;10.50;3.38;;;410.00;2355.20;;;;;;5107944;28;20024;-78
2023/10/05 06:35:11;;;;;;;7.78;3.35;;;409.90;2355.20;;;;;;5121601;27;20032;-76
2023/10/05 06:37:38;;;;;;;8.50;3.85;;;410.00;2355.20;;;;;;5116157;28;21100;-76
2023/10/05 06:40:12;;;;;;;9.85;3.70;;;410.10;2355.20;;;;;;5111685;28;20384;-76
2023/10/05 06:42:44;;;;;;;9.20;3.83;;;410.30;2355.20;;;;;;5110158;28;20054;-78
2023/10/05 06:45:11;;;;;;;7.95;4.18;;;410.50;2355.20;;;;;;5106176;28;20055;-77
2023/10/05 06:47:37;;;;;;;7.20;3.70;;;435.30;2355.20;;;;;;5116084;28;20480;-78
2023/10/05 06:50:10;;;;;;;7.63;4.30;;;435.30;2355.20;;;;;;5103815;28;20032;-76
2023/10/05 06:52:42;;;;;;;8.55;3.75;;;435.30;2355.20;;;;;;5109464;28;20110;-74
2023/10/05 06:55:11;;;;;;;13.75;4.15;;;435.50;2355.20;;;;;;5109043;28;20053;-76
2023/10/05 06:57:38;;;;;;;6.38;3.20;;;435.50;2355.20;;;;;;5108745;27;20032;-77
2023/10/05 07:00:11;;;;;;;9.60;4.63;;;435.60;2355.20;;;;;;5096693;28;20120;-80
2023/10/05 07:02:41;;;;;;;130.25;61.38;;;435.60;2355.20;;;;;;5105314;28;20069;-78
2023/10/05 07:05:14;;;;;;;21.88;10.35;;;435.80;2355.20;;;;;;5107695;28;20040;-79
2023/10/05 07:07:43;;;;;;;11.75;4.70;;;435.80;2355.20;;;;;;5112984;27;20090;-77
2023/10/05 07:10:13;;;;;;;7.95;3.58;;;435.80;2355.20;;;;;;5113448;28;20396;-78
2023/10/05 07:12:41;;;;;;;19.63;9.73;;;435.90;2355.20;;;;;;5111736;28;20020;-79
2023/10/05 07:15:08;;;;;;;10.35;5.75;;;435.80;2355.20;;;;;;5110256;28;20067;-78
2023/10/05 07:17:34;;;;;;;8.20;4.50;;;435.80;2355.20;;;;;;5099591;28;20034;-79
2023/10/05 07:20:01;;;;;;;8.82;4.70;;;435.80;2355.20;;;;;;5095959;28;20123;-77
2023/10/05 07:22:26;;;;;;;14.18;5.68;;;435.70;2355.20;;;;;;5096668;28;20058;-80
2023/10/05 07:24:52;;;;;;;10.00;4.72;;;435.90;2355.20;;;;;;5102377;28;20040;-79
2023/10/05 07:27:18;;;;;;;15.52;9.55;;;435.90;2355.20;;;;;;5096461;28;20111;-79
2023/10/05 07:29:45;;;;;;;11.95;6.63;;;436.00;2355.20;;;;;;5101351;28;20139;-78
2023/10/05 07:32:14;;;;;;;6.38;3.63;;;436.10;2355.20;;;;;;5089145;28;20021;-80
2023/10/05 07:34:41;;;;;;;6.25;3.40;;;436.10;2355.20;;;;;;5096669;28;20021;-78
2023/10/05 07:37:10;;;;;;;7.55;4.20;;;436.10;2355.20;;;;;;5095794;28;20035;-76
2023/10/05 07:39:41;;;;;;;9.90;4.35;;;436.00;2355.20;;;;;;5114103;28;20047;-76
2023/10/05 07:42:08;;;;;;;8.60;3.75;;;436.00;2355.20;;;;;;5101636;28;20031;-76
2023/10/05 07:44:36;;;;;;;9.90;4.13;;;436.10;2355.20;;;;;;5118034;27;20040;-75
2023/10/05 07:47:02;;;;;;;12.38;4.05;;;436.10;2355.20;;;;;;5099261;28;20031;-75
2023/10/05 07:49:29;;;;;;;11.38;3.53;;;436.10;2355.20;;;;;;5101432;28;20031;-77
2023/10/05 07:51:54;;;;;;;13.18;3.95;;;460.90;2380.80;;;;;;5098857;28;20085;-78
2023/10/05 07:54:20;;;;;;;8.52;3.85;;;460.80;2380.80;;;;;;5093258;28;20028;-77
2023/10/05 07:56:46;;;;;;;10.60;3.78;;;460.90;2380.80;;;;;;5083404;28;20032;-77
2023/10/05 07:59:14;;;;;;;15.68;6.07;;;460.80;2380.80;;;;;;5089932;28;20472;-76
2023/10/05 08:01:40;;;;;;;43.20;22.25;;;460.90;2380.80;;;;;;5097303;28;20027;-77
2023/10/05 08:04:11;;;;;;;51.85;21.75;;;461.10;2380.80;;;;;;5100939;28;20040;-76
2023/10/05 08:06:38;;;;;;;14.15;6.18;;;461.20;2380.80;;;;;;5096218;28;20020;-77
2023/10/05 08:09:06;;;;;;;17.17;7.75;;;461.20;2380.80;;;;;;5095785;28;20483;-79
2023/10/05 08:11:32;;;;;;;10.68;4.07;;;461.20;2380.80;;;;;;5091199;28;20469;-80
2023/10/05 08:13:58;;;;;;;11.85;4.75;;;461.30;2380.80;;;;;;5083890;28;20131;-80
2023/10/05 08:16:24;;;;;;;15.68;5.80;;;461.40;2380.80;;;;;;5094033;28;20496;-79
2023/10/05 08:18:50;;;;;;;12.77;4.90;;;461.30;2380.80;;;;;;5090226;28;20509;-80
2023/10/05 08:21:15;;;;;;;10.10;4.45;;;461.50;2380.80;;;;;;5090863;28;20120;-79
2023/10/05 08:23:42;;;;;;;10.02;3.63;;;461.40;2380.80;;;;;;5087499;28;20047;-78
2023/10/05 08:26:08;;;;;;;9.00;5.30;;;461.40;2380.80;;;;;;5094792;28;20024;-79
2023/10/05 08:28:34;;;;;;;10.55;5.78;;;461.60;2380.80;;;;;;5081637;28;20039;-79
2023/10/05 08:31:11;;;;;;;10.05;4.00;;;461.60;2380.80;;;;;;5085257;28;20028;-78
2023/10/05 08:33:39;;;;;;;12.73;4.75;;;486.40;2380.80;;;;;;5111790;27;20051;-77
2023/10/05 08:36:12;;;;;;;15.65;4.70;;;486.60;2380.80;;;;;;5098440;28;20499;-76
2023/10/05 08:38:38;;;;;;;13.70;5.97;;;486.60;2380.80;;;;;;5087712;28;20430;-77
2023/10/05 08:41:07;;;;;;;24.02;11.45;;;487.00;2380.80;;;;;;5093927;28;20077;-77
2023/10/05 08:43:40;;;;;;;12.85;5.15;;;487.00;2380.80;;;;;;5099491;28;20036;-81
2023/10/05 08:46:12;;;;;;;11.13;5.15;;;487.20;2380.80;;;;;;5088937;28;20020;-79
2023/10/05 08:48:39;;;;;;;14.68;5.00;;;512.00;2380.80;;;;;;5087203;28;20111;-77
2023/10/05 08:51:10;;;;;;;8.45;4.47;;;512.10;2380.80;;;;;;5099972;28;20039;-79
2023/10/05 08:53:49;;;;;;;12.45;3.42;;;512.20;2380.80;;;;;;5084421;28;20032;-80
2023/10/05 08:56:18;;;;;;;8.35;5.18;;;512.40;2380.80;;;;;;5082716;28;20039;-79
2023/10/05 08:58:45;;;;;;;6.78;3.45;;;512.80;2380.80;;;;;;5096069;28;20091;-79
2023/10/05 09:01:27;;;;;;;9.18;4.90;;;537.60;2406.40;;;;;;5091980;28;20029;-80
2023/10/05 09:03:54;;;;;;;9.98;6.93;;;537.90;2406.40;;;;;;5098845;28;20035;-79
2023/10/05 09:06:26;;;;;;;10.02;5.18;;;538.30;2329.60;;;;;;5097376;28;20032;-80
2023/10/05 09:11:31;;;;;;;6.65;3.42;;;563.70;2201.60;;;;;;5090853;28;20035;-79
2023/10/05 09:14:27;;;;;;;8.95;3.53;;;588.80;2150.40;;;;;;5097997;28;20412;-79
2023/10/05 09:17:09;;;;;;;13.03;2.70;;;589.20;2073.60;;;;;;5083970;28;20028;-80
2023/10/05 09:19:37;;;;;;;7.35;3.30;;;589.20;2022.40;;;;;;5090833;28;20269;-78
2023/10/05 09:22:14;;;;;;;6.82;2.85;;;614.50;1996.80;;;;;;5083118;28;20495;-79
2023/10/05 09:24:52;;;;;;;10.50;4.63;;;589.60;1996.80;;;;;;5088048;28;20127;-79
2023/10/05 09:27:19;;;;;;;10.13;3.22;;;;;;;;;;5107789;27;20027;-79
2023/10/05 09:29:45;;;;;;;7.63;3.22;;;614.80;1920.00;;;;;;5087562;28;20086;-79
2023/10/05 09:32:36;;;;;;;7.35;3.15;;;;;;;;;;5089450;28;20070;-80
2023/10/05 09:35:04;;;;;;;7.55;2.97;;;615.30;1817.60;;;;;;5094295;28;20074;-80
2023/10/05 09:37:35;;;;;;;10.38;3.10;;;640.20;1766.40;;;;;;5092906;28;20024;-80
2023/10/05 09:40:03;;;;;;;7.80;3.50;;;640.30;1766.40;;;;;;5083264;28;20024;-79
2023/10/05 09:42:34;;;;;;;4.63;2.78;;;640.50;1740.80;;;;;;5088361;28;20042;-80
2023/10/05 09:45:08;;;;;;;5.30;2.55;;;640.80;1638.40;;;;;;5096005;28;20051;-79
2023/10/05 09:47:35;;;;;;;4.75;2.55;;;640.90;1638.40;;;;;;5087828;28;20051;-80
2023/10/05 09:50:12;;;;;;;7.53;2.58;;;665.70;1612.80;;;;;;5085247;28;20118;-79
2023/10/05 09:52:45;;;;;;;7.15;2.90;;;665.70;1638.40;;;;;;5105305;27;20027;-80
2023/10/05 10:13:12;;;;;;;4.53;2.67;;;640.80;1561.60;;;;;;5144316;27;20394;-77
2023/10/05 10:15:49;;;;;;;4.22;2.45;;;691.80;1408.00;;;;;;5116812;28;20088;-75
2023/10/05 10:18:15;;;;;;;8.05;3.03;;;691.90;1382.40;;;;;;5118765;28;20475;-77
2023/10/05 10:20:51;;;;;;;6.50;2.80;;;691.70;1382.40;;;;;;5128838;28;20126;-76
2023/10/05 10:23:24;;;;;;;;;;;691.90;1433.60;;;;;;5126502;28;20037;-76
2023/10/05 10:25:52;;;;;;;5.13;2.78;;;691.70;1331.20;;;;;;5113099;28;20002;-77
2023/10/05 10:31:30;;;;;;;5.53;2.95;;;691.60;1305.60;;;;;;5121777;28;20425;-78
2023/10/05 10:34:08;;;;;;;8.27;2.85;;;692.10;1305.60;;;;;;5105272;28;20015;-76
2023/10/05 10:36:55;;;;;;;7.25;2.92;;;716.90;1331.20;;;;;;5108382;28;20023;-76
2023/10/05 10:39:29;;;;;;;8.43;2.95;;;716.80;1305.60;;;;;;5128489;28;20486;-75
2023/10/05 10:42:05;;;;;;;6.85;2.53;;;717.00;1254.40;;;;;;5111827;28;20039;-77
2023/10/05 10:47:22;;;;;;;6.75;2.83;;;717.20;1280.00;;;;;;5125891;28;20051;-76
2023/10/05 10:50:01;;;;;;;6.70;2.80;;;717.00;1254.40;;;;;;5130026;28;20035;-75
2023/10/05 10:52:26;;;;;;;5.07;2.42;;;717.40;1254.40;;;;;;5123086;28;20024;-78
2023/10/05 10:54:57;;;;;;;6.68;2.42;;;717.30;1228.80;;;;;;5129127;28;20069;-76
2023/10/05 10:57:23;;;;;;;8.63;2.83;;;717.10;1177.60;;;;;;5128059;28;20023;-76
2023/10/05 11:00:38;;;;;;;6.55;2.60;;;717.50;1203.20;;;;;;5111227;28;20023;-76
2023/10/05 11:02:41;;;;;;;7.60;2.40;;;;;;;;;;5129746;28;20114;-77
2023/10/05 11:05:14;;;;;;;6.15;3.13;;;;;;;;;;5129585;28;20019;-76
2023/10/05 11:07:41;;;;;;;7.53;2.30;;;;;;;;;;5129626;28;20103;-77
2023/10/05 11:10:18;;;;;;;7.28;2.65;;;717.10;1280.00;;;;;;5126066;28;20016;-77
2023/10/05 11:12:53;;;;;;;4.05;2.00;;;717.20;1280.00;;;;;;5122648;28;20055;-76
2023/10/05 11:15:22;;;;;;;5.85;2.60;;;717.40;1228.80;;;;;;5115729;28;20034;-76
2023/10/05 11:17:52;;;;;;;3.97;2.33;;;717.20;1228.80;;;;;;5097346;28;20100;-74
2023/10/05 11:20:33;;;;;;;5.40;2.53;;;717.40;1228.80;;;;;;5115734;28;20030;-75
2023/10/05 11:23:03;;;;;;;15.38;3.28;;;717.10;1203.20;;;;;;5097473;28;20028;-78
2023/10/05 11:25:32;;;;;;;5.03;2.65;;;717.50;1203.20;;;;;;5115752;28;20103;-76
2023/10/05 11:28:00;;;;;;;3.97;2.05;;;717.70;1228.80;;;;;;5115376;28;20024;-77
2023/10/05 11:30:41;;;;;;;5.38;2.38;;;717.70;1203.20;;;;;;5097471;28;20406;-77
2023/10/05 11:33:15;;;;;;;6.65;3.22;;;742.50;1203.20;;;;;;5112086;28;20059;-76
2023/10/05 11:35:51;;;;;;;6.20;2.38;;;742.40;1254.40;;;;;;5110380;28;20019;-76
2023/10/05 11:38:19;;;;;;;6.55;2.53;;;742.40;1228.80;;;;;;5097182;28;20063;-75
2023/10/05 11:40:55;;;;;;;5.55;2.08;;;717.50;1203.20;;;;;;5092086;28;20387;-75
2023/10/05 11:43:22;;;;;;;6.68;2.53;;;742.40;1203.20;;;;;;5097092;28;20434;-75
2023/10/05 11:46:24;;;;;;;5.43;2.42;;;742.40;1228.80;;;;;;5095830;28;20030;-76
2023/10/05 11:48:54;;;;;;;5.13;2.70;;;742.40;1228.80;;;;;;5096869;28;20049;-74
2023/10/05 11:54:24;;;;;;;6.35;2.35;;;717.60;1228.80;;;;;;5051341;28;20048;-75
2023/10/05 11:56:50;;;;;;;9.27;2.97;;;742.50;1228.80;;;;;;5049733;28;20037;-74
2023/10/05 11:59:28;;;;;;;4.72;2.35;;;742.90;1228.80;;;;;;5045105;28;20118;-74
2023/10/05 12:01:54;;;;;;;4.45;2.47;;;717.70;1203.20;;;;;;5051268;28;20543;-74
2023/10/05 12:04:20;;;;;;;4.55;2.58;;;742.40;1228.80;;;;;;5049375;28;20090;-75
2023/10/05 12:06:52;;;;;;;8.93;2.80;;;717.70;1203.20;;;;;;5051788;28;20071;-76
2023/10/05 12:09:28;;;;;;;8.82;2.45;;;742.40;1228.80;;;;;;5051653;28;20489;-75
2023/10/05 12:11:58;;;;;;;4.05;2.53;;;742.60;1203.20;;;;;;5048399;28;20056;-74
2023/10/05 12:14:25;;;;;;;7.70;2.45;;;742.50;1228.80;;;;;;5050268;28;20115;-75
2023/10/05 12:16:57;;;;;;;6.28;2.35;;;742.50;1228.80;;;;;;5049014;28;20032;-74
2023/10/05 12:19:29;;;;;;;8.32;3.63;;;742.40;1228.80;;;;;;5051607;28;20064;-77
2023/10/05 12:22:13;;;;;;;5.22;2.63;;;717.50;1228.80;;;;;;5051590;28;20051;-75
2023/10/05 12:24:39;;;;;;;4.82;2.58;;;717.50;1177.60;;;;;;5050734;28;20029;-76
2023/10/05 12:27:18;;;;;;;4.93;2.92;;;742.50;1203.20;;;;;;5049905;28;20036;-73
2023/10/05 12:29:45;;;;;;;5.30;2.92;;;742.40;1203.20;;;;;;5055110;28;20025;-77
2023/10/05 12:32:13;;;;;;;5.95;2.80;;;742.50;1203.20;;;;;;5114351;28;20028;-74
2023/10/05 12:34:43;;;;;;;18.25;3.70;;;717.50;1203.20;;;;;;5114294;28;20028;-75
2023/10/05 12:37:08;;;;;;;6.55;2.83;;;742.50;1203.20;;;;;;5112476;28;20023;-76
2023/10/05 12:39:34;;;;;;;6.90;2.40;;;717.50;1203.20;;;;;;5113392;28;20363;-76
2023/10/05 12:42:01;;;;;;;8.77;2.72;;;717.70;1228.80;;;;;;5113989;28;20040;-74
2023/10/05 12:44:27;;;;;;;5.32;2.60;;;742.40;1203.20;;;;;;5113544;28;20349;-74
2023/10/05 12:46:53;;;;;;;6.72;2.63;;;717.70;1203.20;;;;;;5113657;28;20495;-76
2023/10/05 12:49:20;;;;;;;5.10;2.72;;;717.70;1228.80;;;;;;5113624;28;20023;-74
2023/10/05 12:51:47;;;;;;;5.22;2.92;;;717.70;1177.60;;;;;;5113641;28;20362;-74
2023/10/05 12:54:19;;;;;;;10.02;3.50;;;717.50;1228.80;;;;;;5113776;28;20020;-75
2023/10/05 12:56:46;;;;;;;5.63;2.70;;;717.50;1203.20;;;;;;5102747;28;20024;-75
2023/10/05 12:59:12;;;;;;;8.02;3.20;;;716.90;1203.20;;;;;;5112046;28;20034;-74
2023/10/05 13:01:41;;;;;;;6.35;2.95;;;716.90;1254.40;;;;;;5111773;28;20118;-74
2023/10/05 13:04:08;;;;;;;4.20;2.50;;;717.10;1254.40;;;;;;5109199;28;20456;-72
2023/10/05 13:06:34;;;;;;;8.90;3.13;;;716.90;1254.40;;;;;;5113378;28;20024;-74
2023/10/05 13:09:04;;;;;;;8.18;3.25;;;716.80;1228.80;;;;;;5105320;28;20020;-74
2023/10/05 13:11:33;;;;;;;6.72;2.92;;;692.10;1254.40;;;;;;5112920;28;20044;-76
2023/10/05 13:13:59;;;;;;;9.05;2.70;;;692.10;1203.20;;;;;;5109820;28;20023;-75
2023/10/05 13:16:26;;;;;;;5.35;2.85;;;692.10;1203.20;;;;;;5112997;28;20469;-72
2023/10/05 13:18:54;;;;;;;12.73;3.17;;;692.00;1228.80;;;;;;5113570;28;20015;-74
2023/10/05 13:21:22;;;;;;;6.93;3.05;;;691.90;1203.20;;;;;;5108843;28;20039;-75
2023/10/05 13:23:48;;;;;;;9.73;3.17;;;691.90;1203.20;;;;;;5109565;28;20020;-73
2023/10/05 13:26:16;;;;;;;5.22;3.17;;;691.70;1254.40;;;;;;5109719;28;20112;-74
2023/10/05 13:28:42;;;;;;;5.70;3.20;;;691.70;1203.20;;;;;;5113153;28;20022;-74
2023/10/05 13:31:09;;;;;;;8.98;3.20;;;691.60;1203.20;;;;;;5112985;28;20387;-73
2023/10/05 13:33:35;;;;;;;11.90;3.10;;;691.50;1228.80;;;;;;5113573;28;20019;-75
2023/10/05 13:36:06;;;;;;;7.55;3.25;;;691.40;1228.80;;;;;;5112455;28;20119;-73
2023/10/05 13:38:33;;;;;;;11.55;3.03;;;691.40;1203.20;;;;;;5112760;28;20028;-73
2023/10/05 13:43:33;;;;;;;7.80;2.78;;;691.30;1228.80;;;;;;5110974;28;20047;-74
2023/10/05 13:46:18;;;;;;;6.38;3.45;;;691.30;1203.20;;;;;;5113056;28;20032;-74
2023/10/05 13:48:48;;;;;;;9.02;3.25;;;691.20;1203.20;;;;;;5112808;28;20476;-76